Time;durP1;ratioP1;P1;durP2;ratioP2;P2;SDS_P1;SDS_P2;PMS_P1;PMS_P2;Temp;Humidity;BMP_temperature;BMP_pressure;BME280_temperature;BME280_humidity;BME280_pressure;Samples;Min_cycle;Max_cycle;Signal;HPM_P1;HPM_P2
2024/01/08 00:01:12;;;;;;;1.17;1.10;;;;;;;;;;5016857;28;20026;-25
2024/01/08 00:03:39;;;;;;;0.80;0.80;;;;;;;;;;5016598;28;20037;-25
2024/01/08 00:06:05;;;;;;;0.95;0.90;;;;;;;;;;4995889;28;20042;-25
2024/01/08 00:08:31;;;;;;;0.85;0.85;;;;;;;;;;4997445;28;20038;-25
2024/01/08 00:10:57;;;;;;;0.75;0.75;;;;;;;;;;4997395;28;20018;-25
2024/01/08 00:13:23;;;;;;;1.17;1.08;;;;;;;;;;4997066;28;20038;-25
2024/01/08 00:15:50;;;;;;;0.80;0.80;;;;;;;;;;4997008;28;20050;-25
2024/01/08 00:18:16;;;;;;;0.70;0.70;;;;;;;;;;4996979;28;20061;-25
2024/01/08 00:20:42;;;;;;;0.90;0.90;;;;;;;;;;4996885;28;20481;-25
2024/01/08 00:23:09;;;;;;;0.80;0.80;;;;;;;;;;4997012;28;20405;-25
2024/01/08 00:25:36;;;;;;;0.90;0.90;;;;;;;;;;4995842;28;20030;-25
2024/01/08 00:28:04;;;;;;;0.80;0.80;;;;;;;;;;4996804;28;20409;-25
2024/01/08 00:30:30;;;;;;;0.80;0.80;;;;;;;;;;4997033;28;20032;-25
2024/01/08 00:32:56;;;;;;;0.85;0.85;;;;;;;;;;4996875;28;20050;-25
2024/01/08 00:35:22;;;;;;;0.70;0.70;;;;;;;;;;4997186;28;20053;-25
2024/01/08 00:37:48;;;;;;;1.08;1.00;;;;;;;;;;4996584;28;20030;-25
2024/01/08 00:40:14;;;;;;;0.80;0.80;;;;;;;;;;4996795;28;20034;-25
2024/01/08 00:42:40;;;;;;;1.15;1.10;;;;;;;;;;4996895;28;20050;-25
2024/01/08 00:45:07;;;;;;;0.77;0.77;;;;;;;;;;4996447;28;20458;-25
2024/01/08 00:47:33;;;;;;;0.80;0.80;;;;;;;;;;4996433;28;20034;-25
2024/01/08 00:50:00;;;;;;;1.17;1.08;;;;;;;;;;4996631;28;20105;-25
2024/01/08 00:52:26;;;;;;;0.82;0.82;;;;;;;;;;4996232;28;20022;-25
2024/01/08 00:54:52;;;;;;;0.93;0.90;;;;;;;;;;4996548;28;20036;-25
2024/01/08 00:57:18;;;;;;;1.10;1.10;;;;;;;;;;4995243;28;20035;-25
2024/01/08 00:59:44;;;;;;;0.90;0.90;;;;;;;;;;4996200;28;20022;-25
2024/01/08 01:02:10;;;;;;;0.80;0.80;;;;;;;;;;4995988;28;20030;-25
2024/01/08 01:04:36;;;;;;;0.80;0.80;;;;;;;;;;4997446;28;20018;-25
2024/01/08 01:07:03;;;;;;;1.05;0.95;;;;;;;;;;5015965;28;20091;-25
2024/01/08 01:09:29;;;;;;;0.70;0.70;;;;;;;;;;5015580;28;20058;-25
2024/01/08 01:11:56;;;;;;;1.10;1.00;;;;;;;;;;5015528;28;20022;-25
2024/01/08 01:14:22;;;;;;;0.88;0.88;;;;;;;;;;5015451;28;20512;-25
2024/01/08 01:16:48;;;;;;;0.82;0.82;;;;;;;;;;5015522;28;20022;-25
2024/01/08 01:19:15;;;;;;;0.90;0.90;;;;;;;;;;5015128;28;20075;-25
2024/01/08 01:21:41;;;;;;;0.85;0.85;;;;;;;;;;5015707;28;20022;-25
2024/01/08 01:24:07;;;;;;;1.40;0.85;;;;;;;;;;5015250;28;20026;-25
2024/01/08 01:26:33;;;;;;;1.00;1.00;;;;;;;;;;5015621;28;20028;-25
2024/01/08 01:28:59;;;;;;;0.85;0.85;;;;;;;;;;5015277;28;20025;-25
2024/01/08 01:31:25;;;;;;;1.00;1.00;;;;;;;;;;5015225;28;20026;-25
2024/01/08 01:33:51;;;;;;;1.05;1.00;;;;;;;;;;5015735;28;20402;-25
2024/01/08 01:36:17;;;;;;;1.00;1.00;;;;;;;;;;5015473;28;20401;-25
2024/01/08 01:38:44;;;;;;;0.77;0.77;;;;;;;;;;5015449;28;20334;-25
2024/01/08 01:41:11;;;;;;;0.80;0.80;;;;;;;;;;5015122;28;20053;-25
2024/01/08 01:43:38;;;;;;;0.70;0.70;;;;;;;;;;5014905;28;20160;-25
2024/01/08 01:46:05;;;;;;;0.95;0.95;;;;;;;;;;5015055;28;20399;-26
2024/01/08 01:48:32;;;;;;;0.85;0.85;;;;;;;;;;5014990;28;20018;-26
2024/01/08 01:50:58;;;;;;;0.95;0.90;;;;;;;;;;5015526;28;20023;-25
2024/01/08 01:53:25;;;;;;;0.70;0.70;;;;;;;;;;5014881;28;20045;-25
2024/01/08 01:55:52;;;;;;;0.80;0.80;;;;;;;;;;5015184;28;20022;-25
2024/01/08 01:58:18;;;;;;;0.95;0.93;;;;;;;;;;5014934;28;20030;-25
2024/01/08 02:00:45;;;;;;;1.00;1.00;;;;;;;;;;5014865;28;20089;-25
2024/01/08 02:03:11;;;;;;;0.90;0.90;;;;;;;;;;5014685;28;20101;-25
2024/01/08 02:05:38;;;;;;;0.95;0.95;;;;;;;;;;5014790;28;20046;-25
2024/01/08 02:08:05;;;;;;;1.17;1.08;;;;;;;;;;5014832;28;20022;-25
2024/01/08 02:10:31;;;;;;;0.90;0.90;;;;;;;;;;5014792;28;20037;-26
2024/01/08 02:12:58;;;;;;;1.08;0.98;;;;;;;;;;5014702;28;20449;-25
2024/01/08 02:15:24;;;;;;;1.25;1.15;;;;;;;;;;5014722;28;20480;-25
2024/01/08 02:17:50;;;;;;;0.93;0.93;;;;;;;;;;5014729;28;20453;-25
2024/01/08 02:20:16;;;;;;;0.95;0.90;;;;;;;;;;5014660;28;20111;-25
2024/01/08 02:22:42;;;;;;;0.65;0.65;;;;;;;;;;5014560;28;20026;-25
2024/01/08 02:25:09;;;;;;;1.08;1.00;;;;;;;;;;5014626;28;20108;-25
2024/01/08 02:27:35;;;;;;;0.80;0.80;;;;;;;;;;5014636;28;20080;-25
2024/01/08 02:30:01;;;;;;;0.75;0.75;;;;;;;;;;4998718;28;20036;-25
2024/01/08 02:32:27;;;;;;;0.77;0.77;;;;;;;;;;5018677;28;20044;-25
2024/01/08 02:34:53;;;;;;;0.90;0.90;;;;;;;;;;5018780;28;20045;-25
2024/01/08 02:37:20;;;;;;;1.10;1.10;;;;;;;;;;5018445;28;20033;-25
2024/01/08 02:39:46;;;;;;;0.80;0.80;;;;;;;;;;5018915;28;20381;-25
2024/01/08 02:42:13;;;;;;;0.75;0.75;;;;;;;;;;5018423;28;20092;-25
2024/01/08 02:44:40;;;;;;;0.85;0.85;;;;;;;;;;5018243;28;20025;-25
2024/01/08 02:47:06;;;;;;;1.17;1.15;;;;;;;;;;5018493;28;20022;-25
2024/01/08 02:49:32;;;;;;;0.75;0.75;;;;;;;;;;5018199;28;20097;-25
2024/01/08 02:51:58;;;;;;;0.80;0.80;;;;;;;;;;5018119;28;20022;-25
2024/01/08 02:54:24;;;;;;;1.25;1.15;;;;;;;;;;5018181;28;20040;-25
2024/01/08 02:56:51;;;;;;;0.80;0.80;;;;;;;;;;5001131;28;20449;-25
2024/01/08 02:59:17;;;;;;;0.70;0.70;;;;;;;;;;5018190;28;20026;-25
2024/01/08 03:01:43;;;;;;;0.85;0.85;;;;;;;;;;5018278;28;20034;-25
2024/01/08 03:04:09;;;;;;;0.73;0.73;;;;;;;;;;5018043;28;20041;-25
2024/01/08 03:06:35;;;;;;;0.90;0.90;;;;;;;;;;5017771;28;20050;-25
2024/01/08 03:09:01;;;;;;;0.82;0.82;;;;;;;;;;5017839;28;20503;-25
2024/01/08 03:11:28;;;;;;;0.90;0.90;;;;;;;;;;5017829;28;20361;-25
2024/01/08 03:13:55;;;;;;;0.88;0.88;;;;;;;;;;5017909;28;20030;-25
2024/01/08 03:16:21;;;;;;;0.80;0.80;;;;;;;;;;5017799;28;20031;-25
2024/01/08 03:18:47;;;;;;;1.00;0.93;;;;;;;;;;5017978;28;20022;-25
2024/01/08 03:21:13;;;;;;;0.80;0.80;;;;;;;;;;5018175;28;20029;-25
2024/01/08 03:23:39;;;;;;;0.82;0.82;;;;;;;;;;5017501;28;20025;-26
2024/01/08 03:26:06;;;;;;;1.17;0.90;;;;;;;;;;5017844;28;20034;-25
2024/01/08 03:28:32;;;;;;;0.90;0.90;;;;;;;;;;5017401;28;20025;-25
2024/01/08 03:31:01;;;;;;;0.68;0.68;;;;;;;;;;5017450;28;20087;-29
2024/01/08 03:33:28;;;;;;;2.17;1.05;;;;;;;;;;5017534;28;20056;-25
2024/01/08 03:35:55;;;;;;;0.98;0.98;;;;;;;;;;5017305;28;20096;-25
2024/01/08 03:38:21;;;;;;;0.90;0.90;;;;;;;;;;5017283;28;20096;-25
2024/01/08 03:40:47;;;;;;;0.70;0.70;;;;;;;;;;5016761;28;20037;-25
2024/01/08 03:43:13;;;;;;;1.00;1.00;;;;;;;;;;5017111;28;20338;-25
2024/01/08 03:45:39;;;;;;;0.73;0.73;;;;;;;;;;5017485;28;20414;-25
2024/01/08 03:48:05;;;;;;;0.93;0.93;;;;;;;;;;5017183;28;20026;-25
2024/01/08 03:50:33;;;;;;;0.98;0.98;;;;;;;;;;5017848;28;20036;-25
2024/01/08 03:52:59;;;;;;;0.80;0.80;;;;;;;;;;5017234;28;20361;-25
2024/01/08 03:55:25;;;;;;;0.63;0.63;;;;;;;;;;5016924;28;20461;-25
2024/01/08 03:57:51;;;;;;;0.73;0.73;;;;;;;;;;5016961;28;20074;-27
2024/01/08 04:00:17;;;;;;;0.80;0.80;;;;;;;;;;5016903;28;20461;-25
2024/01/08 04:02:43;;;;;;;0.75;0.75;;;;;;;;;;5016767;28;20089;-25
2024/01/08 04:05:11;;;;;;;0.98;0.98;;;;;;;;;;5016598;28;20076;-25
2024/01/08 04:07:38;;;;;;;0.80;0.80;;;;;;;;;;5016778;28;20026;-25
2024/01/08 04:10:07;;;;;;;0.68;0.68;;;;;;;;;;5017256;28;20028;-25
2024/01/08 04:12:34;;;;;;;0.75;0.75;;;;;;;;;;5017126;28;20018;-25
2024/01/08 04:15:00;;;;;;;0.82;0.82;;;;;;;;;;5016894;28;20045;-25
2024/01/08 04:17:27;;;;;;;0.60;0.60;;;;;;;;;;5016855;28;20072;-25
2024/01/08 04:19:54;;;;;;;1.23;1.10;;;;;;;;;;5016805;28;20018;-25
2024/01/08 04:22:20;;;;;;;0.98;0.88;;;;;;;;;;4999089;28;20099;-25
2024/01/08 04:24:46;;;;;;;0.93;0.93;;;;;;;;;;5016727;28;20076;-25
2024/01/08 04:27:12;;;;;;;1.65;0.98;;;;;;;;;;5016632;28;20105;-25
2024/01/08 04:29:39;;;;;;;0.98;0.98;;;;;;;;;;5016331;28;20014;-25
2024/01/08 04:32:05;;;;;;;0.80;0.80;;;;;;;;;;5016217;28;20030;-25
2024/01/08 04:34:32;;;;;;;0.93;0.93;;;;;;;;;;5016257;28;20445;-25
2024/01/08 04:36:58;;;;;;;0.95;0.95;;;;;;;;;;5016762;28;20361;-25
2024/01/08 04:39:24;;;;;;;0.80;0.80;;;;;;;;;;5016697;28;20049;-25
2024/01/08 04:41:50;;;;;;;1.08;0.98;;;;;;;;;;5016053;28;20025;-25
2024/01/08 04:44:16;;;;;;;0.80;0.80;;;;;;;;;;5015987;28;20030;-25
2024/01/08 04:46:44;;;;;;;0.70;0.70;;;;;;;;;;5016585;28;20434;-36
2024/01/08 04:49:10;;;;;;;0.70;0.70;;;;;;;;;;5015895;28;20073;-25
2024/01/08 04:51:36;;;;;;;1.00;1.00;;;;;;;;;;5015557;28;20022;-25
2024/01/08 04:54:04;;;;;;;0.77;0.77;;;;;;;;;;5015242;28;20037;-25
2024/01/08 04:56:31;;;;;;;0.75;0.75;;;;;;;;;;4998470;28;20026;-25
2024/01/08 04:58:57;;;;;;;0.75;0.75;;;;;;;;;;5015729;28;20029;-26
2024/01/08 05:01:23;;;;;;;0.98;0.93;;;;;;;;;;5016230;28;20107;-36
2024/01/08 05:03:49;;;;;;;0.80;0.80;;;;;;;;;;5015525;28;20061;-25
2024/01/08 05:06:17;;;;;;;1.10;0.88;;;;;;;;;;5015337;28;20121;-25
2024/01/08 05:08:43;;;;;;;0.70;0.70;;;;;;;;;;5015867;28;20101;-25
2024/01/08 05:11:09;;;;;;;0.77;0.77;;;;;;;;;;4998204;28;20026;-25
2024/01/08 05:13:35;;;;;;;0.80;0.80;;;;;;;;;;4998060;28;20041;-25
2024/01/08 05:16:02;;;;;;;1.90;1.75;;;;;;;;;;5015802;28;20053;-25
2024/01/08 05:18:29;;;;;;;4.50;0.88;;;;;;;;;;4998078;28;20030;-25
2024/01/08 05:20:55;;;;;;;2.30;1.00;;;;;;;;;;5015463;28;20084;-25
2024/01/08 05:23:21;;;;;;;1.52;1.30;;;;;;;;;;5015106;28;20025;-24
2024/01/08 05:25:47;;;;;;;1.52;1.15;;;;;;;;;;5015192;28;20018;-24
2024/01/08 05:28:14;;;;;;;4.10;1.25;;;;;;;;;;5015170;28;20041;-25
2024/01/08 05:30:40;;;;;;;11.23;1.33;;;;;;;;;;5015594;28;20527;-24
2024/01/08 05:33:06;;;;;;;3.53;1.73;;;;;;;;;;5015316;28;20049;-25
2024/01/08 05:35:34;;;;;;;6.63;1.23;;;;;;;;;;5015068;28;20334;-25
2024/01/08 05:38:01;;;;;;;3.15;1.02;;;;;;;;;;5014965;28;20056;-25
2024/01/08 05:40:28;;;;;;;4.03;1.20;;;;;;;;;;4997729;28;20036;-25
2024/01/08 05:42:54;;;;;;;5.72;1.38;;;;;;;;;;5015162;28;20022;-25
2024/01/08 05:45:21;;;;;;;1.63;1.00;;;;;;;;;;5015659;28;20117;-25
2024/01/08 05:47:48;;;;;;;4.80;1.25;;;;;;;;;;5014822;28;20034;-25
2024/01/08 05:50:16;;;;;;;1.40;1.15;;;;;;;;;;5015107;28;20057;-24
2024/01/08 05:52:44;;;;;;;3.17;1.10;;;;;;;;;;5015081;28;20034;-25
2024/01/08 05:55:13;;;;;;;3.50;0.98;;;;;;;;;;5014799;28;20030;-25
2024/01/08 05:57:40;;;;;;;3.40;1.27;;;;;;;;;;5014861;28;20022;-25
2024/01/08 06:00:06;;;;;;;1.35;0.82;;;;;;;;;;5014709;28;20034;-25
2024/01/08 06:02:32;;;;;;;0.80;0.73;;;;;;;;;;5419771;23;20397;-31
2024/01/08 06:04:59;;;;;;;1.13;1.02;;;;;;;;;;4995114;28;20022;-29
2024/01/08 06:07:25;;;;;;;3.72;1.33;;;;;;;;;;4995426;28;20092;-30
2024/01/08 06:09:51;;;;;;;2.35;0.95;;;;;;;;;;4995193;28;20101;-27
2024/01/08 06:12:18;;;;;;;3.13;0.85;;;;;;;;;;4995739;28;20407;-30
2024/01/08 06:14:44;;;;;;;2.03;1.00;;;;;;;;;;4995163;28;20124;-30
2024/01/08 06:17:11;;;;;;;1.02;0.98;;;;;;;;;;4995049;28;20026;-27
2024/01/08 06:19:37;;;;;;;3.08;1.08;;;;;;;;;;4995310;28;20093;-30
2024/01/08 06:22:04;;;;;;;3.35;1.00;;;;;;;;;;4995453;28;20349;-29
2024/01/08 06:24:30;;;;;;;1.10;1.00;;;;;;;;;;4995231;28;20349;-29
2024/01/08 06:26:56;;;;;;;6.75;0.90;;;;;;;;;;4977837;28;20380;-31
2024/01/08 06:29:23;;;;;;;1.13;1.02;;;;;;;;;;4995114;28;20031;-28
2024/01/08 06:31:49;;;;;;;4.88;1.05;;;;;;;;;;4995285;28;20041;-28
2024/01/08 06:34:15;;;;;;;1.00;0.90;;;;;;;;;;4994901;28;20022;-32
2024/01/08 06:36:41;;;;;;;2.22;1.13;;;;;;;;;;4995461;28;20023;-30
2024/01/08 06:39:09;;;;;;;3.75;0.90;;;;;;;;;;4977786;28;20026;-31
2024/01/08 06:41:36;;;;;;;2.85;0.90;;;;;;;;;;4977671;28;20103;-31
2024/01/08 06:44:02;;;;;;;5.07;1.20;;;;;;;;;;4994991;28;20030;-28
2024/01/08 06:46:29;;;;;;;3.72;1.20;;;;;;;;;;4994857;28;20171;-30
2024/01/08 06:48:55;;;;;;;3.40;1.00;;;;;;;;;;4995308;28;20030;-29
2024/01/08 06:51:21;;;;;;;4.55;0.75;;;;;;;;;;4994740;28;20034;-29
2024/01/08 06:53:50;;;;;;;2.22;1.35;;;;;;;;;;4994860;28;20364;-27
2024/01/08 06:56:16;;;;;;;0.85;0.85;;;;;;;;;;4994873;28;20023;-30
2024/01/08 06:58:43;;;;;;;1.23;0.80;;;;;;;;;;4994596;28;20069;-30
2024/01/08 07:01:09;;;;;;;3.28;1.00;;;;;;;;;;4994614;28;20101;-31
2024/01/08 07:03:35;;;;;;;1.13;0.90;;;;;;;;;;4994224;28;20112;-32
2024/01/08 07:06:04;;;;;;;1.83;1.08;;;;;;;;;;4977498;28;20023;-30
2024/01/08 07:08:30;;;;;;;6.60;2.75;;;;;;;;;;4994620;28;20134;-31
2024/01/08 07:10:56;;;;;;;8.82;2.40;;;;;;;;;;4994785;28;20030;-29
2024/01/08 07:13:23;;;;;;;10.35;2.90;;;;;;;;;;4977254;28;20454;-31
2024/01/08 07:15:50;;;;;;;10.93;1.40;;;;;;;;;;4995765;28;20030;-28
2024/01/08 07:18:17;;;;;;;16.83;2.22;;;;;;;;;;4997923;28;20030;-32
2024/01/08 07:20:44;;;;;;;5.10;1.42;;;;;;;;;;4998172;28;20333;-31
2024/01/08 07:23:11;;;;;;;5.00;1.08;;;;;;;;;;4980737;28;20353;-30
2024/01/08 07:25:41;;;;;;;6.30;1.38;;;;;;;;;;4997809;28;20457;-29
2024/01/08 07:28:08;;;;;;;4.23;1.17;;;;;;;;;;4998113;28;20030;-27
2024/01/08 07:30:34;;;;;;;9.90;1.92;;;;;;;;;;4997732;28;20027;-30
2024/01/08 07:33:01;;;;;;;4.80;1.10;;;;;;;;;;4997625;28;20081;-31
2024/01/08 07:35:27;;;;;;;1.98;1.00;;;;;;;;;;4997647;28;20491;-30
2024/01/08 07:37:56;;;;;;;3.78;2.03;;;;;;;;;;4997636;28;20121;-32
2024/01/08 07:40:23;;;;;;;1.42;1.15;;;;;;;;;;4997601;28;20401;-29
2024/01/08 07:42:49;;;;;;;4.40;2.20;;;;;;;;;;4997540;28;20050;-27
2024/01/08 07:45:16;;;;;;;2.78;0.90;;;;;;;;;;4997921;28;20027;-31
2024/01/08 07:47:42;;;;;;;3.58;1.25;;;;;;;;;;4997676;28;20018;-28
2024/01/08 07:50:08;;;;;;;3.78;1.17;;;;;;;;;;4997685;28;20026;-32
2024/01/08 07:52:36;;;;;;;4.68;1.00;;;;;;;;;;4997550;28;20077;-29
2024/01/08 07:55:02;;;;;;;2.85;1.25;;;;;;;;;;4997521;28;20023;-29
2024/01/08 07:57:29;;;;;;;4.97;1.20;;;;;;;;;;4997361;28;20037;-31
2024/01/08 07:59:55;;;;;;;5.90;1.13;;;;;;;;;;4997527;28;20022;-32
2024/01/08 08:02:21;;;;;;;4.20;1.00;;;;;;;;;;4997009;28;20415;-28
2024/01/08 08:04:47;;;;;;;2.38;1.00;;;;;;;;;;4997419;28;20113;-29
2024/01/08 08:07:13;;;;;;;3.88;1.30;;;;;;;;;;4997440;28;20037;-31
2024/01/08 08:09:39;;;;;;;1.52;1.10;;;;;;;;;;4997316;28;20163;-26
2024/01/08 08:12:06;;;;;;;1.77;1.42;;;;;;;;;;4997731;28;20433;-30
2024/01/08 08:14:32;;;;;;;1.35;0.90;;;;;;;;;;4997014;28;20466;-31
2024/01/08 08:16:58;;;;;;;3.50;1.00;;;;;;;;;;4996852;28;20026;-29
2024/01/08 08:19:25;;;;;;;3.65;1.65;;;;;;;;;;4997178;28;20030;-31
2024/01/08 08:21:51;;;;;;;3.78;1.10;;;;;;;;;;4997473;28;20096;-30
2024/01/08 08:24:17;;;;;;;4.45;0.77;;;;;;;;;;4996735;28;20065;-27
2024/01/08 08:26:43;;;;;;;1.92;1.20;;;;;;;;;;4996931;28;20032;-29
2024/01/08 08:29:09;;;;;;;2.97;1.10;;;;;;;;;;4997214;28;20064;-28
2024/01/08 08:31:35;;;;;;;5.03;1.38;;;;;;;;;;4996643;28;20088;-30
2024/01/08 08:34:01;;;;;;;3.88;1.10;;;;;;;;;;4996587;28;20088;-28
2024/01/08 08:36:28;;;;;;;3.28;1.13;;;;;;;;;;4996836;28;20441;-30
2024/01/08 08:38:54;;;;;;;5.95;1.55;;;;;;;;;;4996546;28;20030;-32
2024/01/08 08:41:20;;;;;;;3.17;1.40;;;;;;;;;;4996811;28;20037;-28
2024/01/08 08:43:47;;;;;;;5.20;1.45;;;;;;;;;;4996376;28;20033;-31
2024/01/08 08:46:13;;;;;;;4.80;1.63;;;;;;;;;;4996633;28;20523;-30
2024/01/08 08:48:39;;;;;;;2.67;1.30;;;;;;;;;;4979270;28;20105;-31
2024/01/08 08:51:06;;;;;;;1.45;1.20;;;;;;;;;;4996347;28;20030;-29
2024/01/08 08:53:32;;;;;;;2.15;1.13;;;;;;;;;;4996254;28;20030;-32
2024/01/08 08:55:58;;;;;;;2.35;1.25;;;;;;;;;;4979183;28;20034;-29
2024/01/08 08:58:24;;;;;;;1.48;1.10;;;;;;;;;;4979117;28;20092;-30
2024/01/08 09:00:51;;;;;;;2.92;1.30;;;;;;;;;;4996188;28;20089;-32
2024/01/08 09:03:17;;;;;;;1.73;1.20;;;;;;;;;;4995960;28;20057;-31
2024/01/08 09:05:43;;;;;;;1.48;1.02;;;;;;;;;;4979235;28;20019;-27
2024/01/08 09:08:09;;;;;;;4.13;1.02;;;;;;;;;;4996507;28;20033;-28
2024/01/08 09:10:35;;;;;;;2.33;1.27;;;;;;;;;;4996530;28;20441;-31
2024/01/08 09:13:01;;;;;;;2.88;1.15;;;;;;;;;;4978788;28;20468;-30
2024/01/08 09:15:28;;;;;;;3.97;1.10;;;;;;;;;;4995866;28;20037;-32
2024/01/08 09:17:54;;;;;;;3.78;1.10;;;;;;;;;;4995876;28;20030;-30
2024/01/08 09:20:21;;;;;;;4.97;1.67;;;;;;;;;;4978708;28;20026;-31
2024/01/08 09:22:47;;;;;;;5.40;1.27;;;;;;;;;;4995560;28;20042;-31
2024/01/08 09:25:13;;;;;;;3.63;1.20;;;;;;;;;;4978509;28;20132;-26
2024/01/08 09:27:42;;;;;;;4.75;1.27;;;;;;;;;;4995681;28;20019;-31
2024/01/08 09:30:08;;;;;;;11.32;1.63;;;;;;;;;;4995557;28;20026;-29
2024/01/08 09:32:34;;;;;;;4.07;1.10;;;;;;;;;;4978362;28;20472;-31
2024/01/08 09:35:00;;;;;;;2.05;1.27;;;;;;;;;;4996062;28;20022;-30
2024/01/08 09:37:26;;;;;;;7.72;1.45;;;;;;;;;;4995544;28;20026;-28
2024/01/08 09:39:53;;;;;;;2.17;1.45;;;;;;;;;;4995226;28;20030;-30
2024/01/08 09:42:21;;;;;;;6.28;3.72;;;;;;;;;;4995002;28;20030;-31
2024/01/08 09:44:53;;;;;;;1.00;1.00;;;;;;;;;;4978507;28;20030;-30
2024/01/08 09:47:20;;;;;;;2.72;1.35;;;;;;;;;;4979184;28;20054;-30
2024/01/08 09:49:46;;;;;;;1.73;1.05;;;;;;;;;;4995403;28;20540;-29
2024/01/08 09:52:17;;;;;;;6.85;1.10;;;;;;;;;;4995058;28;20061;-33
2024/01/08 09:54:43;;;;;;;5.97;1.10;;;;;;;;;;4995044;28;20033;-29
2024/01/08 09:57:09;;;;;;;3.47;1.00;;;;;;;;;;4995467;28;20098;-31
2024/01/08 09:59:36;;;;;;;2.40;1.30;;;;;;;;;;4977843;28;20034;-28
2024/01/08 10:02:03;;;;;;;1.17;0.93;;;;;;;;;;4994917;28;20057;-32
2024/01/08 10:04:30;;;;;;;2.60;0.90;;;;;;;;;;4995364;28;20053;-29
2024/01/08 10:07:14;;;;;;;3.40;1.00;;;;;;;;;;4995227;28;20038;-28
2024/01/08 10:09:40;;;;;;;3.80;1.05;;;;;;;;;;4995687;28;20036;-29
2024/01/08 10:12:08;;;;;;;3.95;1.00;;;;;;;;;;4994869;28;20157;-31
2024/01/08 10:14:35;;;;;;;5.47;1.52;;;;;;;;;;4995094;28;20130;-30
2024/01/08 10:17:01;;;;;;;4.65;1.33;;;;;;;;;;4994709;28;20097;-28
2024/01/08 10:19:28;;;;;;;2.47;1.10;;;;;;;;;;4994802;28;20077;-31
2024/01/08 10:22:13;;;;;;;3.50;1.20;;;;;;;;;;4994968;28;20030;-28
2024/01/08 10:24:40;;;;;;;2.05;1.25;;;;;;;;;;4995325;28;20077;-29
2024/01/08 10:27:10;;;;;;;1.33;0.90;;;;;;;;;;4995196;28;20022;-30
2024/01/08 10:29:40;;;;;;;2.80;1.10;;;;;;;;;;4995362;28;20057;-28
2024/01/08 10:32:06;;;;;;;3.17;1.10;;;;;;;;;;4994730;28;20027;-31
2024/01/08 10:34:33;;;;;;;5.57;1.98;;;;;;;;;;4995358;28;20058;-28
2024/01/08 10:37:00;;;;;;;1.20;1.05;;;;;;;;;;4994731;28;20036;-31
2024/01/08 10:39:30;;;;;;;4.53;1.15;;;;;;;;;;4995321;28;20034;-31
2024/01/08 10:41:59;;;;;;;5.32;1.15;;;;;;;;;;4994580;28;20035;-27
2024/01/08 10:44:26;;;;;;;3.40;1.30;;;;;;;;;;4977442;28;20096;-30
2024/01/08 10:46:55;;;;;;;5.68;1.42;;;;;;;;;;4994976;28;20044;-31
2024/01/08 10:49:27;;;;;;;2.67;1.75;;;;;;;;;;4994647;28;20030;-28
2024/01/08 10:51:55;;;;;;;2.20;1.20;;;;;;;;;;4997726;28;20029;-30
2024/01/08 10:54:22;;;;;;;3.42;1.00;;;;;;;;;;4998677;28;20358;-28
2024/01/08 10:56:50;;;;;;;2.95;1.10;;;;;;;;;;4981141;28;20037;-29
2024/01/08 10:59:22;;;;;;;1.73;0.90;;;;;;;;;;4998796;28;20041;-28
2024/01/08 11:01:49;;;;;;;9.20;1.85;;;;;;;;;;4981089;28;20361;-30
2024/01/08 11:04:15;;;;;;;5.05;1.13;;;;;;;;;;4998124;28;20058;-31
2024/01/08 11:06:42;;;;;;;2.67;1.00;;;;;;;;;;4998267;28;20512;-32
2024/01/08 11:09:29;;;;;;;1.65;1.13;;;;;;;;;;4980769;28;20093;-28
2024/01/08 11:11:56;;;;;;;7.22;1.50;;;;;;;;;;4980802;28;20353;-27
2024/01/08 11:14:23;;;;;;;4.07;1.02;;;;;;;;;;4998420;28;20447;-32
2024/01/08 11:16:50;;;;;;;1.85;1.10;;;;;;;;;;4980662;28;20109;-33
2024/01/08 11:19:19;;;;;;;7.22;1.13;;;;;;;;;;4980960;28;20419;-32
2024/01/08 11:21:48;;;;;;;1.20;1.00;;;;;;;;;;4998412;28;20045;-27
2024/01/08 11:24:14;;;;;;;1.27;1.00;;;;;;;;;;4997816;28;20457;-30
2024/01/08 11:26:41;;;;;;;6.05;0.90;;;;;;;;;;4964655;28;20381;-31
2024/01/08 11:29:11;;;;;;;4.78;1.35;;;;;;;;;;4997684;28;20350;-33
2024/01/08 11:31:38;;;;;;;3.17;1.40;;;;;;;;;;4998177;28;20109;-31
2024/01/08 11:34:20;;;;;;;4.03;1.55;;;;;;;;;;4997733;28;20396;-28
2024/01/08 11:36:49;;;;;;;2.97;1.40;;;;;;;;;;4997619;28;20030;-31
2024/01/08 11:39:19;;;;;;;2.17;1.20;;;;;;;;;;4997713;28;20114;-30
2024/01/08 11:41:49;;;;;;;5.82;1.17;;;;;;;;;;4997569;28;20026;-31
2024/01/08 11:44:15;;;;;;;8.23;1.40;;;;;;;;;;4997678;28;20027;-29
2024/01/08 11:46:42;;;;;;;2.22;1.10;;;;;;;;;;4997593;28;20393;-32
2024/01/08 11:49:08;;;;;;;1.95;0.90;;;;;;;;;;4997793;28;20049;-30
2024/01/08 11:51:34;;;;;;;3.42;1.05;;;;;;;;;;4997300;28;20029;-30
2024/01/08 11:54:06;;;;;;;8.80;1.27;;;;;;;;;;4997632;28;20416;-32
2024/01/08 11:56:33;;;;;;;5.95;1.35;;;;;;;;;;4997282;28;20406;-28
2024/01/08 11:58:59;;;;;;;5.43;1.27;;;;;;;;;;4997183;28;20053;-31
2024/01/08 12:01:26;;;;;;;1.58;1.05;;;;;;;;;;4979888;28;20030;-33
2024/01/08 12:03:58;;;;;;;3.67;1.25;;;;;;;;;;4996761;28;20097;-27
2024/01/08 12:06:24;;;;;;;3.35;1.00;;;;;;;;;;4997769;28;20085;-30
2024/01/08 12:08:54;;;;;;;3.00;1.42;;;;;;;;;;4996992;28;20088;-32
2024/01/08 12:11:24;;;;;;;1.05;0.95;;;;;;;;;;4997012;28;20108;-31
2024/01/08 12:13:51;;;;;;;1.52;1.17;;;;;;;;;;4997183;28;20352;-29
2024/01/08 12:16:17;;;;;;;2.40;1.10;;;;;;;;;;4996906;28;20030;-33
2024/01/08 12:18:46;;;;;;;1.90;1.25;;;;;;;;;;4997237;28;20452;-28
2024/01/08 12:21:12;;;;;;;1.42;1.33;;;;;;;;;;4997177;28;20041;-31
2024/01/08 12:23:38;;;;;;;7.28;1.88;;;;;;;;;;4979444;28;20131;-29
2024/01/08 12:26:04;;;;;;;2.17;1.23;;;;;;;;;;4996725;28;20031;-30
2024/01/08 12:28:31;;;;;;;4.50;1.63;;;;;;;;;;4979358;28;20077;-29
2024/01/08 12:31:01;;;;;;;3.53;1.48;;;;;;;;;;4996903;28;20096;-30
2024/01/08 12:33:27;;;;;;;5.38;1.52;;;;;;;;;;4996758;28;20125;-31
2024/01/08 12:35:54;;;;;;;2.00;1.15;;;;;;;;;;4997045;28;20073;-30
2024/01/08 12:38:21;;;;;;;4.22;1.13;;;;;;;;;;4996806;28;20022;-31
2024/01/08 12:40:51;;;;;;;4.90;1.30;;;;;;;;;;4979459;28;20370;-28
2024/01/08 12:43:19;;;;;;;15.00;3.55;;;;;;;;;;4996361;28;20038;-28
2024/01/08 12:45:46;;;;;;;6.70;1.67;;;;;;;;;;4979252;28;20022;-31
2024/01/08 12:48:13;;;;;;;6.30;2.05;;;;;;;;;;4996378;28;20027;-27
2024/01/08 12:50:39;;;;;;;5.93;1.42;;;;;;;;;;4996570;28;20045;-29
2024/01/08 12:53:05;;;;;;;5.03;1.17;;;;;;;;;;4997266;28;20404;-30
2024/01/08 12:55:32;;;;;;;11.02;2.28;;;;;;;;;;4996212;28;20026;-31
2024/01/08 12:57:58;;;;;;;2.80;1.23;;;;;;;;;;4996478;28;20054;-29
2024/01/08 13:00:28;;;;;;;2.10;1.10;;;;;;;;;;4996130;28;20461;-31
2024/01/08 13:02:55;;;;;;;1.38;1.13;;;;;;;;;;4995700;28;21934;-27
2024/01/08 13:05:21;;;;;;;3.65;1.48;;;;;;;;;;4979009;28;20033;-30
2024/01/08 13:07:47;;;;;;;6.45;1.20;;;;;;;;;;4996236;28;20417;-31
2024/01/08 13:10:14;;;;;;;5.80;2.70;;;;;;;;;;4978972;28;20121;-28
2024/01/08 13:12:40;;;;;;;3.15;2.00;;;;;;;;;;4995777;28;20417;-30
2024/01/08 13:15:09;;;;;;;6.35;1.42;;;;;;;;;;4995426;28;20097;-31
2024/01/08 13:17:36;;;;;;;1.48;1.20;;;;;;;;;;4996058;28;20042;-30
2024/01/08 13:20:02;;;;;;;2.05;1.30;;;;;;;;;;4995785;28;20400;-29
2024/01/08 13:22:28;;;;;;;3.90;1.00;;;;;;;;;;4995802;28;20117;-31
2024/01/08 13:24:59;;;;;;;5.88;1.00;;;;;;;;;;4978377;28;20089;-30
2024/01/08 13:27:26;;;;;;;6.72;1.50;;;;;;;;;;4995878;28;20026;-27
2024/01/08 13:29:52;;;;;;;1.45;1.10;;;;;;;;;;4995677;28;20030;-30
2024/01/08 13:32:19;;;;;;;3.63;1.42;;;;;;;;;;4995795;28;20072;-29
2024/01/08 13:34:47;;;;;;;2.08;1.10;;;;;;;;;;4995509;28;20049;-31
2024/01/08 13:37:16;;;;;;;2.05;1.02;;;;;;;;;;4995470;28;20066;-27
2024/01/08 13:39:44;;;;;;;1.60;1.20;;;;;;;;;;4978322;28;20018;-30
2024/01/08 13:42:15;;;;;;;3.38;1.20;;;;;;;;;;4995715;28;20104;-29
2024/01/08 13:44:41;;;;;;;3.77;1.80;;;;;;;;;;4995323;28;20026;-30
2024/01/08 13:47:07;;;;;;;1.63;1.10;;;;;;;;;;4995367;28;20412;-29
2024/01/08 13:49:33;;;;;;;1.85;1.45;;;;;;;;;;4995593;28;20026;-27
2024/01/08 13:52:00;;;;;;;13.80;2.35;;;;;;;;;;4995364;28;20023;-29
2024/01/08 13:54:26;;;;;;;1.33;1.23;;;;;;;;;;4995199;28;20026;-32
2024/01/08 13:56:52;;;;;;;4.10;1.38;;;;;;;;;;4995161;28;20030;-30
2024/01/08 13:59:18;;;;;;;2.58;1.05;;;;;;;;;;4995375;28;20037;-30
2024/01/08 14:01:45;;;;;;;2.65;1.48;;;;;;;;;;4995129;28;20092;-30
2024/01/08 14:04:11;;;;;;;4.80;1.48;;;;;;;;;;4994914;28;20105;-30
2024/01/08 14:06:37;;;;;;;6.82;1.80;;;;;;;;;;4995347;28;20030;-31
2024/01/08 14:09:03;;;;;;;1.85;1.00;;;;;;;;;;4995035;28;20453;-31
2024/01/08 14:11:29;;;;;;;3.80;1.00;;;;;;;;;;4995099;28;20065;-33
2024/01/08 14:13:56;;;;;;;3.38;1.05;;;;;;;;;;4994906;28;20022;-28
2024/01/08 14:16:22;;;;;;;5.95;1.50;;;;;;;;;;4995349;28;20084;-30
2024/01/08 14:18:48;;;;;;;11.07;1.52;;;;;;;;;;4994853;28;20030;-30
2024/01/08 14:21:14;;;;;;;2.30;1.20;;;;;;;;;;4994776;28;20026;-30
2024/01/08 14:23:40;;;;;;;6.68;1.83;;;;;;;;;;4994883;28;20365;-30
2024/01/08 14:26:06;;;;;;;3.88;1.45;;;;;;;;;;4998433;28;20076;-30
2024/01/08 14:28:33;;;;;;;12.32;1.40;;;;;;;;;;4998719;28;20030;-30
2024/01/08 14:30:59;;;;;;;6.80;1.40;;;;;;;;;;4998885;28;20101;-30
2024/01/08 14:33:26;;;;;;;4.55;1.10;;;;;;;;;;4998695;28;20041;-31
2024/01/08 14:35:52;;;;;;;3.42;1.45;;;;;;;;;;4999173;28;20023;-31
2024/01/08 14:38:20;;;;;;;1.58;1.20;;;;;;;;;;4998771;28;20030;-29
2024/01/08 14:40:48;;;;;;;2.97;1.95;;;;;;;;;;4998595;28;20027;-29